createdAt,value
2022-10-24T00:01:48.683Z,98004.06
2022-10-24T00:07:12.718Z,98015.06
2022-10-24T00:12:37.716Z,98007.59
2022-10-24T00:18:04.734Z,98015.97
2022-10-24T00:23:29.677Z,98011.47
2022-10-24T00:28:55.760Z,98002.81
2022-10-24T00:34:23.726Z,98004.44
2022-10-24T00:39:47.827Z,97993.75
2022-10-24T00:45:42.746Z,97997.97
2022-10-24T00:51:13.726Z,97984.22
2022-10-24T00:56:42.800Z,97978.53
2022-10-24T01:02:06.759Z,97991.47
2022-10-24T01:07:53.720Z,97993.25
2022-10-24T01:13:21.024Z,97983.72
2022-10-24T01:18:49.785Z,97987.44
2022-10-24T01:24:38.761Z,97980.75
2022-10-24T01:30:16.737Z,97980.00
2022-10-24T01:35:46.748Z,97989.06
2022-10-24T01:41:14.739Z,97982.78
2022-10-24T01:46:45.742Z,97986.56
2022-10-24T01:52:14.758Z,97988.63
2022-10-24T01:57:41.746Z,97988.78
2022-10-24T02:03:11.786Z,97991.50
2022-10-24T02:08:41.863Z,97986.94
2022-10-24T02:14:09.756Z,97979.84
2022-10-24T02:19:37.774Z,97975.84
2022-10-24T02:25:07.763Z,97979.31
2022-10-24T02:30:34.811Z,97976.16
2022-10-24T02:36:03.802Z,97964.03
2022-10-24T02:41:31.805Z,97975.22
2022-10-24T02:46:57.819Z,97982.53
2022-10-24T02:52:25.776Z,97977.50
2022-10-24T02:57:49.785Z,97966.28
2022-10-24T03:03:14.787Z,97970.03
2022-10-24T03:08:41.812Z,97968.69
2022-10-24T03:14:06.817Z,97979.06
2022-10-24T03:19:24.811Z,97996.50
2022-10-24T03:24:55.482Z,97996.88
2022-10-24T03:30:21.835Z,97992.31
2022-10-24T03:35:46.847Z,97993.53
2022-10-24T03:41:14.827Z,98005.19
2022-10-24T03:46:38.830Z,97991.84
2022-10-24T03:52:03.829Z,97998.94
2022-10-24T03:57:30.836Z,98000.25
2022-10-24T04:02:57.890Z,97996.88
2022-10-24T04:08:22.818Z,98001.94
2022-10-24T04:13:49.895Z,97990.69
2022-10-24T04:19:13.838Z,97983.25
2022-10-24T04:24:45.841Z,97986.31
2022-10-24T04:30:17.860Z,97974.88
2022-10-24T04:35:41.869Z,97980.53
2022-10-24T04:41:09.821Z,97967.47
2022-10-24T04:46:38.842Z,97960.53
2022-10-24T04:52:03.853Z,97975.59
2022-10-24T04:57:27.941Z,97966.81
2022-10-24T05:02:56.828Z,97951.16
2022-10-24T05:08:26.047Z,97942.75
2022-10-24T05:13:50.872Z,97956.88
2022-10-24T05:19:17.869Z,97968.03
2022-10-24T05:24:42.901Z,97979.50
2022-10-24T05:30:07.969Z,97967.50
2022-10-24T05:35:35.862Z,97973.09
2022-10-24T05:41:00.902Z,97972.06
2022-10-24T05:46:25.910Z,97973.28
2022-10-24T05:51:52.911Z,97959.09
2022-10-24T05:57:18.322Z,97958.63
2022-10-24T06:02:43.138Z,97961.06
2022-10-24T06:08:10.907Z,97970.19
2022-10-24T06:13:36.424Z,97971.06
2022-10-24T06:19:01.915Z,97969.38
2022-10-24T06:24:28.938Z,97946.50
2022-10-24T06:29:53.937Z,97956.97
2022-10-24T06:35:19.920Z,97994.19
2022-10-24T06:40:48.897Z,98006.75
2022-10-24T06:46:12.905Z,98016.25
2022-10-24T06:51:37.914Z,98025.06
2022-10-24T06:57:05.320Z,98044.31
2022-10-24T07:02:30.003Z,98031.44
2022-10-24T07:07:56.053Z,98019.56
2022-10-24T07:13:23.014Z,98026.25
2022-10-24T07:18:47.952Z,98031.38
2022-10-24T07:24:13.935Z,98022.28
2022-10-24T07:29:41.958Z,98029.25
2022-10-24T07:35:07.105Z,97995.38
2022-10-24T07:40:31.949Z,97997.94
2022-10-24T07:51:43.969Z,98021.91
2022-10-24T07:57:08.974Z,98016.31
2022-10-24T08:02:37.078Z,98011.63
2022-10-24T08:08:24.681Z,97984.13
2022-10-24T08:13:45.995Z,97976.28
2022-10-24T08:19:22.008Z,97994.28
2022-10-24T08:24:46.989Z,97992.25
2022-10-24T08:30:10.973Z,97988.50
2022-10-24T08:35:39.021Z,97986.44
2022-10-24T08:41:03.982Z,97972.88
2022-10-24T08:46:55.031Z,97981.66
2022-10-24T08:52:33.023Z,97985.66
2022-10-24T08:58:02.006Z,97993.19
2022-10-24T09:03:55.940Z,97996.13
2022-10-24T09:09:30.074Z,97980.91
2022-10-24T09:14:56.012Z,97980.75
2022-10-24T09:20:32.075Z,97987.00
2022-10-24T09:26:10.132Z,97968.41
2022-10-24T09:31:37.182Z,97972.00
2022-10-24T09:37:01.066Z,97974.94
2022-10-24T09:42:31.037Z,97978.72
2022-10-24T09:47:55.014Z,97966.63
2022-10-24T09:53:33.048Z,97970.19
2022-10-24T09:59:00.039Z,97976.66
2022-10-24T10:04:27.075Z,97973.72
2022-10-24T10:09:55.601Z,97982.94
2022-10-24T10:15:36.066Z,97986.69
2022-10-24T10:21:00.074Z,97976.69
2022-10-24T10:26:38.057Z,97973.13
2022-10-24T10:32:14.048Z,97971.25
2022-10-24T10:37:43.369Z,97971.22
2022-10-24T10:43:23.117Z,97962.25
2022-10-24T10:49:02.099Z,97956.81
2022-10-24T10:54:57.051Z,97974.56
2022-10-24T11:00:26.081Z,97968.50
2022-10-24T11:06:02.090Z,97960.16
2022-10-24T11:11:32.075Z,97963.28
2022-10-24T11:16:59.095Z,97970.00
2022-10-24T11:22:33.103Z,97973.53
2022-10-24T11:28:09.096Z,97973.75
2022-10-24T11:33:37.139Z,97971.44
2022-10-24T11:39:11.110Z,97962.47
2022-10-24T11:44:55.158Z,97957.22
2022-10-24T11:50:26.128Z,97967.91
2022-10-24T11:56:00.119Z,97958.06
2022-10-24T12:01:48.101Z,97954.72
2022-10-24T12:07:41.129Z,97956.56
2022-10-24T12:13:27.119Z,97939.63
2022-10-24T12:18:56.115Z,97933.34
2022-10-24T12:24:22.123Z,97932.28
2022-10-24T12:29:56.115Z,97935.19
2022-10-24T12:36:03.160Z,97942.53
2022-10-24T12:41:55.174Z,97927.25
2022-10-24T12:47:45.276Z,97921.41
2022-10-24T12:53:21.141Z,97923.94
2022-10-24T12:58:49.141Z,97929.78
2022-10-24T13:04:47.136Z,97928.97
2022-10-24T13:10:25.129Z,97922.91
2022-10-24T13:15:56.307Z,97910.59
2022-10-24T13:21:32.293Z,97916.84
2022-10-24T13:27:27.182Z,97920.19
2022-10-24T13:32:52.194Z,97913.31
2022-10-24T13:38:17.222Z,97918.53
2022-10-24T13:43:52.174Z,97910.81
2022-10-24T13:49:17.242Z,97923.34
2022-10-24T13:54:46.275Z,97924.59
2022-10-24T14:00:15.180Z,97914.75
2022-10-24T14:05:44.197Z,97920.19
2022-10-24T14:11:10.235Z,97917.69
2022-10-24T14:16:41.026Z,97923.53
2022-10-24T14:22:05.203Z,97920.00
2022-10-24T14:27:37.215Z,97899.72
2022-10-24T14:33:17.217Z,97923.34
2022-10-24T14:38:43.215Z,97925.63
2022-10-24T14:44:11.235Z,97922.91
2022-10-24T14:49:45.232Z,97924.78
2022-10-24T14:55:13.224Z,97913.25
2022-10-24T15:00:40.220Z,97917.78
2022-10-24T15:06:17.239Z,97924.94
2022-10-24T15:11:44.224Z,97926.84
2022-10-24T15:17:12.236Z,97940.25
2022-10-24T15:22:45.249Z,97929.78
2022-10-24T15:28:18.233Z,97929.59
2022-10-24T15:33:43.236Z,97925.44
2022-10-24T15:39:16.326Z,97925.06
2022-10-24T15:44:42.239Z,97929.44
2022-10-24T15:50:06.270Z,97917.31
2022-10-24T15:55:37.250Z,97929.22
2022-10-24T16:01:01.372Z,97924.78
2022-10-24T16:06:27.233Z,97925.41
2022-10-24T16:11:54.269Z,97938.78
2022-10-24T16:17:19.283Z,97940.44
2022-10-24T16:22:43.301Z,97953.59
2022-10-24T16:28:17.743Z,97966.13
2022-10-24T16:33:44.366Z,97967.75
2022-10-24T16:39:09.302Z,97966.47
2022-10-24T16:44:38.285Z,97968.34
2022-10-24T16:50:02.273Z,97987.72
2022-10-24T16:55:27.308Z,97993.50
2022-10-24T17:00:54.410Z,98004.53
2022-10-24T17:06:19.313Z,97992.19
2022-10-24T17:11:46.024Z,97995.66
2022-10-24T17:17:14.301Z,98014.00
2022-10-24T17:22:39.321Z,98003.53
2022-10-24T17:28:04.308Z,98005.81
2022-10-24T17:33:35.106Z,98013.69
2022-10-24T17:39:10.491Z,98006.38
2022-10-24T17:44:35.323Z,98023.72
2022-10-24T17:50:03.321Z,98035.38
2022-10-24T17:55:45.788Z,98050.25
2022-10-24T18:01:17.428Z,98045.00
2022-10-24T18:06:45.338Z,98046.22
2022-10-24T18:12:09.354Z,98054.94
2022-10-24T18:17:34.360Z,98058.88
2022-10-24T18:23:01.647Z,98056.72
2022-10-24T18:28:26.535Z,98051.84
2022-10-24T18:33:50.338Z,98054.53
2022-10-24T18:39:19.494Z,98057.34
2022-10-24T18:44:50.922Z,98055.66
2022-10-24T18:50:21.354Z,98058.78
2022-10-24T18:55:52.353Z,98071.69
2022-10-24T19:01:26.487Z,98060.19
2022-10-24T19:06:51.388Z,98064.97
2022-10-24T19:12:19.467Z,98068.72
2022-10-24T19:17:43.367Z,98064.53
2022-10-24T19:23:11.374Z,98066.59
2022-10-24T19:28:38.363Z,98061.09
2022-10-24T19:34:03.373Z,98056.91
2022-10-24T19:39:30.332Z,98050.00
2022-10-24T19:45:03.406Z,98062.31
2022-10-24T19:50:28.466Z,98068.56
2022-10-24T19:55:54.395Z,98059.34
2022-10-24T20:01:26.579Z,98061.72
2022-10-24T20:06:53.415Z,98074.75
2022-10-24T20:12:18.408Z,98068.78
2022-10-24T20:17:46.422Z,98085.78
2022-10-24T20:23:10.417Z,98073.94
2022-10-24T20:28:41.553Z,98067.56
2022-10-24T20:34:11.422Z,98085.75
2022-10-24T20:39:35.435Z,98085.38
2022-10-24T20:45:00.431Z,98080.41
2022-10-24T20:50:27.423Z,98089.97
2022-10-24T20:55:52.572Z,98099.19
2022-10-24T21:01:21.477Z,98091.84
2022-10-24T21:06:49.411Z,98095.22
2022-10-24T21:12:13.419Z,98099.78
2022-10-24T21:17:38.453Z,98106.28
2022-10-24T21:23:05.462Z,98113.50
2022-10-24T21:28:36.463Z,98114.44
2022-10-24T21:34:01.533Z,98125.47
2022-10-24T21:39:30.421Z,98130.22
2022-10-24T21:44:55.460Z,98138.72
2022-10-24T21:50:20.474Z,98127.06
2022-10-24T21:55:48.475Z,98131.63
2022-10-24T22:01:13.573Z,98127.63
2022-10-24T22:06:40.459Z,98136.31
2022-10-24T22:12:07.477Z,98132.06
2022-10-24T22:17:32.479Z,98129.09
2022-10-24T22:22:56.458Z,98139.59
2022-10-24T22:28:24.477Z,98149.31
2022-10-24T22:33:52.580Z,98155.84
2022-10-24T22:39:23.509Z,98156.09
2022-10-24T22:44:51.513Z,98173.72
2022-10-24T22:50:28.494Z,98181.31
2022-10-24T22:55:59.506Z,98183.75
2022-10-24T23:01:45.610Z,98188.03
2022-10-24T23:07:13.597Z,98192.09
2022-10-24T23:12:39.512Z,98184.75
2022-10-24T23:18:07.539Z,98182.88
2022-10-24T23:23:33.515Z,98189.13
2022-10-24T23:29:09.512Z,98188.47
2022-10-24T23:34:37.536Z,98198.78
2022-10-24T23:40:02.532Z,98194.53
2022-10-24T23:45:30.510Z,98190.97
2022-10-24T23:51:05.551Z,98183.16
2022-10-24T23:56:32.538Z,98189.31
